createdAt,value
2018-12-19T00:02:08.022Z,28.87
2018-12-19T00:04:39.650Z,27.33
2018-12-19T00:07:11.397Z,25.80
2018-12-19T00:09:43.454Z,33.90
2018-12-19T00:12:14.615Z,29.00
2018-12-19T00:14:46.433Z,29.57
2018-12-19T00:17:19.100Z,28.73
2018-12-19T00:19:51.877Z,32.97
2018-12-19T00:22:24.067Z,28.73
2018-12-19T00:24:57.926Z,31.60
2018-12-19T00:27:29.816Z,33.63
2018-12-19T00:30:05.772Z,32.17
2018-12-19T00:32:39.811Z,32.60
2018-12-19T00:35:13.582Z,34.27
2018-12-19T00:37:47.606Z,31.07
2018-12-19T00:40:18.975Z,29.80
2018-12-19T00:42:50.346Z,29.47
2018-12-19T00:45:22.535Z,33.67
2018-12-19T00:47:57.103Z,31.40
2018-12-19T00:50:29.179Z,29.83
2018-12-19T00:53:00.339Z,33.53
2018-12-19T00:55:31.534Z,32.20
2018-12-19T00:58:04.019Z,31.43
2018-12-19T01:00:39.182Z,30.07
2018-12-19T01:03:10.519Z,30.47
2018-12-19T01:05:43.521Z,31.53
2018-12-19T01:08:14.551Z,30.33
2018-12-19T01:10:51.693Z,33.43
2018-12-19T01:13:23.516Z,29.87
2018-12-19T01:15:57.650Z,32.33
2018-12-19T01:18:28.841Z,31.00
2018-12-19T01:21:03.100Z,28.77
2018-12-19T01:23:34.431Z,27.63
2018-12-19T01:26:08.318Z,30.30
2018-12-19T01:28:39.472Z,29.07
2018-12-19T01:31:10.423Z,30.30
2018-12-19T01:33:44.609Z,30.70
2018-12-19T01:36:21.016Z,29.57
2018-12-19T01:38:53.290Z,29.17
2018-12-19T01:41:24.466Z,29.20
2018-12-19T01:43:58.105Z,30.67
2018-12-19T01:46:30.150Z,28.10
2018-12-19T01:49:02.677Z,27.50
2018-12-19T01:51:36.915Z,25.90
2018-12-19T01:54:10.369Z,28.60
2018-12-19T01:56:41.462Z,27.53
2018-12-19T01:59:13.282Z,27.97
2018-12-19T02:01:44.775Z,27.07
2018-12-19T02:04:17.315Z,27.50
2018-12-19T02:06:48.772Z,25.67
2018-12-19T02:09:20.015Z,28.30
2018-12-19T02:11:52.377Z,29.47
2018-12-19T02:14:25.350Z,27.13
2018-12-19T02:16:59.395Z,28.43
2018-12-19T02:19:30.542Z,26.83
2018-12-19T02:22:01.826Z,25.77
2018-12-19T02:24:32.898Z,24.20
2018-12-19T02:27:06.571Z,25.77
2018-12-19T02:29:37.658Z,27.43
2018-12-19T02:32:10.978Z,25.87
2018-12-19T02:34:43.305Z,25.00
2018-12-19T02:37:15.385Z,26.97
2018-12-19T02:39:57.313Z,28.20
2018-12-19T02:42:31.166Z,29.17
2018-12-19T02:45:02.812Z,26.57
2018-12-19T02:47:35.328Z,28.30
2018-12-19T02:50:14.657Z,24.83
2018-12-19T02:52:46.484Z,26.23
2018-12-19T02:55:20.832Z,29.23
2018-12-19T02:57:52.004Z,27.37
2018-12-19T03:00:24.885Z,27.73
2018-12-19T03:02:55.934Z,27.97
2018-12-19T03:05:27.059Z,26.67
2018-12-19T03:07:59.964Z,26.63
2018-12-19T03:10:31.612Z,30.03
2018-12-19T03:13:06.286Z,29.57
2018-12-19T03:15:56.613Z,31.03
2018-12-19T03:18:27.698Z,26.47
2018-12-19T03:21:03.251Z,31.50
2018-12-19T03:23:34.698Z,27.23
2018-12-19T03:26:08.364Z,26.47
2018-12-19T03:28:39.430Z,28.07
2018-12-19T03:31:14.995Z,30.87
2018-12-19T03:33:48.744Z,28.90
2018-12-19T03:36:20.696Z,29.10
2018-12-19T03:38:53.128Z,28.30
2018-12-19T03:41:25.932Z,26.70
2018-12-19T03:43:57.841Z,28.10
2018-12-19T03:46:30.668Z,27.17
2018-12-19T03:49:09.250Z,28.00
2018-12-19T03:51:41.247Z,28.50
2018-12-19T03:54:12.539Z,28.13
2018-12-19T03:56:45.946Z,27.80
2018-12-19T03:59:17.533Z,26.90
2018-12-19T04:01:48.927Z,25.20
2018-12-19T04:04:20.049Z,26.47
2018-12-19T04:06:56.554Z,26.50
2018-12-19T04:09:29.998Z,25.43
2018-12-19T04:12:01.116Z,27.57
2018-12-19T04:14:33.948Z,26.60
2018-12-19T04:17:07.302Z,26.20
2018-12-19T04:19:39.401Z,24.07
2018-12-19T04:22:10.512Z,23.17
2018-12-19T04:24:41.647Z,25.90
2018-12-19T04:27:17.532Z,24.97
2018-12-19T04:29:51.640Z,26.63
2018-12-19T04:32:24.781Z,25.13
2018-12-19T04:34:58.615Z,26.63
2018-12-19T04:37:31.564Z,24.83
2018-12-19T04:40:06.154Z,22.23
2018-12-19T04:42:41.965Z,23.87
2018-12-19T04:45:14.542Z,21.73
2018-12-19T04:47:46.878Z,24.70
2018-12-19T04:50:17.907Z,23.43
2018-12-19T04:52:52.663Z,21.87
2018-12-19T04:55:23.788Z,25.33
2018-12-19T04:57:57.944Z,22.27
2018-12-19T05:00:29.042Z,22.23
2018-12-19T05:03:02.311Z,23.40
2018-12-19T05:05:35.222Z,22.50
2018-12-19T05:08:08.966Z,23.23
2018-12-19T05:10:42.965Z,24.17
2018-12-19T05:13:17.472Z,20.83
2018-12-19T05:15:50.039Z,20.23
2018-12-19T05:18:24.532Z,24.67
2018-12-19T05:20:56.645Z,23.50
2018-12-19T05:23:34.785Z,21.33
2018-12-19T05:26:05.951Z,23.13
2018-12-19T05:28:37.427Z,22.07
2018-12-19T05:31:07.494Z,20.40
2018-12-19T05:33:37.560Z,21.80
2018-12-19T05:36:08.209Z,22.73
2018-12-19T05:38:43.145Z,20.63
2018-12-19T05:41:13.226Z,19.40
2018-12-19T05:43:43.493Z,22.50
2018-12-19T05:46:20.867Z,20.27
2018-12-19T05:48:55.789Z,22.57
2018-12-19T05:51:26.332Z,20.37
2018-12-19T05:54:01.708Z,22.07
2018-12-19T05:56:37.064Z,21.37
2018-12-19T05:59:08.837Z,20.90
2018-12-19T06:01:40.161Z,21.13
2018-12-19T06:04:14.727Z,20.77
2018-12-19T06:06:47.052Z,18.87
2018-12-19T06:09:26.180Z,19.40
2018-12-19T06:11:57.290Z,23.00
2018-12-19T06:14:29.560Z,20.77
2018-12-19T06:17:02.276Z,20.13
2018-12-19T06:19:35.201Z,20.93
2018-12-19T06:22:05.262Z,17.73
2018-12-19T06:24:39.852Z,22.43
2018-12-19T06:27:10.428Z,20.83
2018-12-19T06:29:42.820Z,20.27
2018-12-19T06:32:15.152Z,21.93
2018-12-19T06:34:45.468Z,23.33
2018-12-19T06:37:17.524Z,20.10
2018-12-19T06:39:47.617Z,19.33
2018-12-19T06:42:19.005Z,18.93
2018-12-19T06:44:51.244Z,21.63
2018-12-19T06:47:29.928Z,21.97
2018-12-19T06:50:00.134Z,22.47
2018-12-19T06:52:38.285Z,20.47
2018-12-19T06:55:10.480Z,23.60
2018-12-19T06:57:43.930Z,20.97
2018-12-19T07:00:16.537Z,20.97
2018-12-19T07:02:48.427Z,22.67
2018-12-19T07:05:18.477Z,22.00
2018-12-19T07:07:50.993Z,21.97
2018-12-19T07:10:29.785Z,19.70
2018-12-19T07:13:08.071Z,21.50
2018-12-19T07:15:38.617Z,23.60
2018-12-19T07:18:08.777Z,23.83
2018-12-19T07:20:42.035Z,22.40
2018-12-19T07:23:15.117Z,22.07
2018-12-19T07:25:47.139Z,23.90
2018-12-19T07:28:17.240Z,23.00
2018-12-19T07:30:49.189Z,25.00
2018-12-19T07:33:20.305Z,22.13
2018-12-19T07:35:52.652Z,22.03
2018-12-19T07:38:24.232Z,23.23
2018-12-19T07:40:56.650Z,23.07
2018-12-19T07:43:28.415Z,21.93
2018-12-19T07:45:58.795Z,21.53
2018-12-19T07:48:29.949Z,20.63
2018-12-19T07:51:00.109Z,22.37
2018-12-19T07:53:32.917Z,22.03
2018-12-19T07:56:04.096Z,21.67
2018-12-19T07:58:37.945Z,22.83
2018-12-19T08:01:10.624Z,22.43
2018-12-19T08:03:41.330Z,23.87
2018-12-19T08:06:12.774Z,19.47
2018-12-19T08:08:42.856Z,21.00
2018-12-19T08:11:14.928Z,23.63
2018-12-19T08:13:44.960Z,20.93
2018-12-19T08:16:16.307Z,23.17
2018-12-19T08:18:46.375Z,22.30
2018-12-19T08:21:16.476Z,22.73
2018-12-19T08:23:47.267Z,27.33
2018-12-19T08:26:17.344Z,22.57
2018-12-19T08:28:49.105Z,21.97
2018-12-19T08:31:21.237Z,20.43
2018-12-19T08:33:51.344Z,24.60
2018-12-19T08:36:21.556Z,22.33
2018-12-19T08:38:52.784Z,25.90
2018-12-19T08:41:23.252Z,24.00
2018-12-19T08:43:53.333Z,20.47
2018-12-19T08:46:23.392Z,24.07
2018-12-19T08:48:53.439Z,20.00
2018-12-19T08:51:23.586Z,20.13
2018-12-19T08:53:53.752Z,20.60
2018-12-19T08:56:34.461Z,22.43
2018-12-19T08:59:04.617Z,20.13
2018-12-19T09:01:35.820Z,22.80
2018-12-19T09:04:05.959Z,21.07
2018-12-19T09:06:36.060Z,19.30
2018-12-19T09:09:08.168Z,21.47
2018-12-19T09:11:38.267Z,21.40
2018-12-19T09:14:09.518Z,18.73
2018-12-19T09:16:42.190Z,22.97
2018-12-19T09:19:13.756Z,22.33
2018-12-19T09:21:46.872Z,21.80
2018-12-19T09:24:18.406Z,20.67
2018-12-19T09:26:50.300Z,20.83
2018-12-19T09:29:20.364Z,20.87
2018-12-19T09:31:51.115Z,20.70
2018-12-19T09:34:21.325Z,22.23
2018-12-19T09:36:53.860Z,26.90
2018-12-19T09:39:25.651Z,25.53
2018-12-19T09:41:55.763Z,27.53
2018-12-19T09:44:29.276Z,20.87
2018-12-19T09:46:59.447Z,20.40
2018-12-19T09:49:29.505Z,22.43
2018-12-19T09:52:06.369Z,21.27
2018-12-19T09:54:42.157Z,21.13
2018-12-19T09:57:12.553Z,22.50
2018-12-19T09:59:42.689Z,24.83
2018-12-19T10:02:13.414Z,22.73
2018-12-19T10:04:43.486Z,26.23
2018-12-19T10:07:14.927Z,20.40
2018-12-19T10:09:49.834Z,23.33
2018-12-19T10:12:20.405Z,24.87
2018-12-19T10:18:09.398Z,20.60
2018-12-19T10:20:39.465Z,21.33
2018-12-19T10:23:18.895Z,20.83
2018-12-19T10:25:54.771Z,23.43
2018-12-19T10:28:30.583Z,20.93
2018-12-19T10:31:02.540Z,22.40
2018-12-19T10:33:34.126Z,21.30
2018-12-19T10:36:04.185Z,20.07
2018-12-19T10:38:36.889Z,22.60
2018-12-19T10:41:08.938Z,20.47
2018-12-19T10:43:39.051Z,20.27
2018-12-19T10:46:09.351Z,19.27
2018-12-19T10:48:42.365Z,18.37
2018-12-19T10:51:12.409Z,17.20
2018-12-19T10:53:42.612Z,18.07
2018-12-19T10:56:12.706Z,21.73
2018-12-19T10:58:43.843Z,19.13
2018-12-19T11:01:15.055Z,16.70
2018-12-19T11:03:46.705Z,19.13
2018-12-19T11:06:16.757Z,23.57
2018-12-19T11:08:46.874Z,18.37
2018-12-19T11:11:19.555Z,18.93
2018-12-19T11:13:51.578Z,24.90
2018-12-19T11:16:23.816Z,18.70
2018-12-19T11:18:54.863Z,19.77
2018-12-19T11:21:25.011Z,18.93
2018-12-19T11:23:55.394Z,23.03
2018-12-19T11:26:26.432Z,19.57
2018-12-19T11:28:56.897Z,21.73
2018-12-19T11:31:27.556Z,22.70
2018-12-19T11:33:58.568Z,21.77
2018-12-19T11:36:28.794Z,18.43
2018-12-19T11:39:00.499Z,18.50
2018-12-19T11:41:31.053Z,20.13
2018-12-19T11:44:02.799Z,19.50
2018-12-19T11:46:35.383Z,20.40
2018-12-19T11:49:08.690Z,20.17
2018-12-19T11:51:41.158Z,21.13
2018-12-19T11:54:11.297Z,21.27
2018-12-19T11:56:42.343Z,19.23
2018-12-19T11:59:12.414Z,22.17
2018-12-19T12:01:42.458Z,20.40
2018-12-19T12:04:14.867Z,20.50
2018-12-19T12:06:47.647Z,19.90
2018-12-19T12:09:20.148Z,19.00
2018-12-19T12:11:51.592Z,22.50
2018-12-19T12:14:21.720Z,20.00
2018-12-19T12:16:52.627Z,21.73
2018-12-19T12:19:23.832Z,19.43
2018-12-19T12:21:56.139Z,23.03
2018-12-19T12:24:27.492Z,22.63
2018-12-19T12:26:58.695Z,20.67
2018-12-19T12:29:29.877Z,18.43
2018-12-19T12:31:59.936Z,23.00
2018-12-19T12:34:30.012Z,19.03
2018-12-19T12:37:00.086Z,24.23
2018-12-19T12:39:30.152Z,20.97
2018-12-19T12:42:00.218Z,23.50
2018-12-19T12:44:30.861Z,20.73
2018-12-19T12:47:01.718Z,23.20
2018-12-19T12:49:31.908Z,19.97
2018-12-19T12:52:01.943Z,21.10
2018-12-19T12:54:32.012Z,21.67
2018-12-19T12:57:02.163Z,23.00
2018-12-19T12:59:33.443Z,20.50
2018-12-19T13:02:03.560Z,23.60
2018-12-19T13:04:33.657Z,31.97
2018-12-19T13:07:04.128Z,25.20
2018-12-19T13:09:34.183Z,22.97
2018-12-19T13:12:07.359Z,22.83
2018-12-19T13:14:37.664Z,22.77
2018-12-19T13:17:08.011Z,22.50
2018-12-19T13:19:38.060Z,23.50
2018-12-19T13:22:08.372Z,24.23
2018-12-19T13:24:41.906Z,21.33
2018-12-19T13:27:12.008Z,23.23
2018-12-19T13:29:42.706Z,20.50
2018-12-19T13:32:13.382Z,23.20
2018-12-19T13:34:52.357Z,22.87
2018-12-19T13:37:22.557Z,20.07
2018-12-19T13:39:52.651Z,21.30
2018-12-19T13:42:22.764Z,21.10
2018-12-19T13:44:55.577Z,22.90
2018-12-19T13:47:28.683Z,21.63
2018-12-19T13:50:01.261Z,21.27
2018-12-19T13:52:31.830Z,20.30
2018-12-19T13:55:05.694Z,23.63
2018-12-19T13:57:38.787Z,21.97
2018-12-19T14:00:12.575Z,22.33
2018-12-19T14:02:43.222Z,20.93
2018-12-19T14:05:14.684Z,21.70
2018-12-19T14:07:46.568Z,26.57
2018-12-19T14:10:18.847Z,20.93
2018-12-19T14:12:50.087Z,19.90
2018-12-19T14:15:21.921Z,22.33
2018-12-19T14:17:52.997Z,27.10
2018-12-19T14:20:25.667Z,25.70
2018-12-19T14:23:03.026Z,24.57
2018-12-19T14:25:33.353Z,23.07
2018-12-19T14:28:04.593Z,23.00
2018-12-19T14:30:36.799Z,23.70
2018-12-19T14:33:09.779Z,21.77
2018-12-19T14:35:42.005Z,25.80
2018-12-19T14:38:12.086Z,24.33
2018-12-19T14:40:42.200Z,31.50
2018-12-19T14:43:12.720Z,30.70
2018-12-19T14:45:42.820Z,32.33
2018-12-19T14:48:13.151Z,28.07
2018-12-19T14:50:44.293Z,23.47
2018-12-19T14:53:16.424Z,28.37
2018-12-19T14:55:46.978Z,21.87
2018-12-19T14:58:25.037Z,22.63
2018-12-19T15:00:55.136Z,20.73
2018-12-19T15:03:31.142Z,22.00
2018-12-19T15:06:10.364Z,22.00
2018-12-19T15:08:41.026Z,20.70
2018-12-19T15:11:14.957Z,23.33
2018-12-19T15:13:46.057Z,20.97
2018-12-19T15:16:22.469Z,19.23
2018-12-19T15:18:53.702Z,28.07
2018-12-19T15:21:25.541Z,20.43
2018-12-19T15:23:55.627Z,24.03
2018-12-19T15:26:25.696Z,24.73
2018-12-19T15:31:34.633Z,26.00
2018-12-19T15:34:12.733Z,22.27
2018-12-19T15:36:42.776Z,24.97
2018-12-19T15:41:55.046Z,35.80
2018-12-19T15:44:27.989Z,52.07
2018-12-19T15:46:58.343Z,35.30
2018-12-19T15:49:34.551Z,35.17
2018-12-19T15:52:08.886Z,30.10
2018-12-19T15:54:41.151Z,31.77
2018-12-19T15:57:11.931Z,29.40
2018-12-19T15:59:43.123Z,28.47
2018-12-19T16:02:13.193Z,23.03
2018-12-19T16:04:43.710Z,20.97
2018-12-19T16:07:13.930Z,22.40
2018-12-19T16:09:43.979Z,23.40
2018-12-19T16:12:14.074Z,19.47
2018-12-19T16:14:44.354Z,21.70
2018-12-19T16:17:14.647Z,24.03
2018-12-19T16:19:50.530Z,24.00
2018-12-19T16:22:21.236Z,24.60
2018-12-19T16:24:51.651Z,25.20
2018-12-19T16:27:23.009Z,28.70
2018-12-19T16:29:53.676Z,30.63
2018-12-19T16:32:31.103Z,36.73
2018-12-19T16:35:01.251Z,30.90
2018-12-19T16:37:35.402Z,24.73
2018-12-19T16:40:06.186Z,22.43
2018-12-19T16:42:36.235Z,21.30
2018-12-19T16:45:12.712Z,18.67
2018-12-19T16:47:42.823Z,19.47
2018-12-19T16:50:13.052Z,21.30
2018-12-19T16:52:45.079Z,23.50
2018-12-19T16:55:20.068Z,41.47
2018-12-19T16:58:01.959Z,26.27
2018-12-19T17:00:35.624Z,21.63
2018-12-19T17:03:07.666Z,21.90
2018-12-19T17:05:37.768Z,20.47
2018-12-19T17:08:07.826Z,20.80
2018-12-19T17:10:39.678Z,21.23
2018-12-19T17:13:13.314Z,22.57
2018-12-19T17:15:44.456Z,29.10
2018-12-19T17:18:14.828Z,37.43
2018-12-19T17:20:47.022Z,41.93
2018-12-19T17:23:23.839Z,28.47
2018-12-19T17:25:54.136Z,30.17
2018-12-19T17:28:24.198Z,30.00
2018-12-19T17:30:56.791Z,37.40
2018-12-19T17:33:27.685Z,39.60
2018-12-19T17:35:57.760Z,36.53
2018-12-19T17:38:28.653Z,30.13
2018-12-19T17:40:58.905Z,27.43
2018-12-19T17:43:42.485Z,22.17
2018-12-19T17:46:15.286Z,21.20
2018-12-19T17:48:45.513Z,21.70
2018-12-19T17:55:05.655Z,22.63
2018-12-19T17:57:35.748Z,23.90
2018-12-19T18:00:12.513Z,21.43
2018-12-19T18:02:42.626Z,21.13
2018-12-19T18:05:16.112Z,23.13
2018-12-19T18:07:47.219Z,22.73
2018-12-19T18:10:20.715Z,24.50
2018-12-19T18:12:51.396Z,21.43
2018-12-19T18:15:24.545Z,21.00
2018-12-19T18:17:54.669Z,23.07
2018-12-19T18:20:26.966Z,21.23
2018-12-19T18:22:58.314Z,23.50
2018-12-19T18:25:28.367Z,22.70
2018-12-19T18:28:06.840Z,21.90
2018-12-19T18:30:41.286Z,21.70
2018-12-19T18:33:13.367Z,19.50
2018-12-19T18:38:24.188Z,22.43
2018-12-19T18:40:54.273Z,37.40
2018-12-19T18:43:26.217Z,33.70
2018-12-19T18:45:56.467Z,36.57
2018-12-19T18:48:32.352Z,28.77
2018-12-19T18:51:05.480Z,30.10
2018-12-19T18:53:38.140Z,30.40
2018-12-19T18:56:08.592Z,28.10
2018-12-19T18:58:38.762Z,25.70
2018-12-19T19:01:08.945Z,28.30
2018-12-19T19:03:39.324Z,27.30
2018-12-19T19:06:09.431Z,24.43
2018-12-19T19:08:39.677Z,26.57
2018-12-19T19:11:10.060Z,27.77
2018-12-19T19:13:40.391Z,27.80
2018-12-19T19:16:13.616Z,24.87
2018-12-19T19:18:45.494Z,25.43
2018-12-19T19:21:16.558Z,24.27
2018-12-19T19:23:47.893Z,25.87
2018-12-19T19:26:18.475Z,20.50
2018-12-19T19:28:50.580Z,20.27
2018-12-19T19:31:21.081Z,24.30
2018-12-19T19:33:52.409Z,23.30
2018-12-19T19:36:24.733Z,24.37
2018-12-19T19:38:54.813Z,23.53
2018-12-19T19:41:25.896Z,23.87
2018-12-19T19:43:57.520Z,26.63
2018-12-19T19:46:29.575Z,23.27
2018-12-19T19:49:02.546Z,22.53
2018-12-19T19:51:32.710Z,22.10
2018-12-19T19:54:03.300Z,22.70
2018-12-19T19:56:33.503Z,24.50
2018-12-19T19:59:05.052Z,22.83
2018-12-19T20:01:36.043Z,22.40
2018-12-19T20:04:06.457Z,23.77
2018-12-19T20:06:36.496Z,22.53
2018-12-19T20:09:11.180Z,23.27
2018-12-19T20:11:41.231Z,22.13
2018-12-19T20:14:11.386Z,21.27
2018-12-19T20:16:47.193Z,23.07
2018-12-19T20:19:20.406Z,23.13
2018-12-19T20:21:53.948Z,24.57
2018-12-19T20:24:25.900Z,23.83
2018-12-19T20:26:57.136Z,26.50
2018-12-19T20:29:27.454Z,24.83
2018-12-19T20:31:58.534Z,26.87
2018-12-19T20:34:31.505Z,25.17
2018-12-19T20:37:03.475Z,26.70
2018-12-19T20:39:33.952Z,26.70
2018-12-19T20:42:05.196Z,24.80
2018-12-19T20:44:35.464Z,26.63
2018-12-19T20:47:07.662Z,24.07
2018-12-19T20:49:37.939Z,24.10
2018-12-19T20:52:09.571Z,28.03
2018-12-19T20:54:42.980Z,30.23
2018-12-19T20:57:13.007Z,37.63
2018-12-19T20:59:44.853Z,34.90
2018-12-19T21:02:17.239Z,35.40
2018-12-19T21:04:48.887Z,35.53
2018-12-19T21:07:20.497Z,27.03
2018-12-19T21:09:50.701Z,27.40
2018-12-19T21:12:21.202Z,24.93
2018-12-19T21:14:51.829Z,23.37
2018-12-19T21:17:27.624Z,24.13
2018-12-19T21:19:59.945Z,22.50
2018-12-19T21:22:31.291Z,23.57
2018-12-19T21:25:02.832Z,26.43
2018-12-19T21:27:32.886Z,22.50
2018-12-19T21:30:02.995Z,25.13
2018-12-19T21:32:33.085Z,24.40
2018-12-19T21:35:06.820Z,23.93
2018-12-19T21:37:37.645Z,22.67
2018-12-19T21:40:10.186Z,21.13
2018-12-19T21:42:40.604Z,23.80
2018-12-19T21:45:11.370Z,21.97
2018-12-19T21:47:42.932Z,26.07
2018-12-19T21:50:13.026Z,20.67
2018-12-19T21:52:43.140Z,27.73
2018-12-19T21:55:20.000Z,21.23
2018-12-19T21:57:50.303Z,24.17
2018-12-19T22:00:28.691Z,23.47
2018-12-19T22:03:06.247Z,23.60
2018-12-19T22:05:40.937Z,23.90
2018-12-19T22:08:12.648Z,23.83
2018-12-19T22:10:49.894Z,29.30
2018-12-19T22:13:21.341Z,25.97
2018-12-19T22:15:57.207Z,25.90
2018-12-19T22:18:33.170Z,27.03
2018-12-19T22:21:05.535Z,26.83
2018-12-19T22:23:38.141Z,24.07
2018-12-19T22:26:10.819Z,28.97
2018-12-19T22:28:44.345Z,23.90
2018-12-19T22:31:17.917Z,23.60
2018-12-19T22:33:52.012Z,25.57
2018-12-19T22:36:25.560Z,25.70
2018-12-19T22:38:57.042Z,21.27
2018-12-19T22:41:31.009Z,24.97
2018-12-19T22:44:07.837Z,21.47
2018-12-19T22:46:38.356Z,25.80
2018-12-19T22:49:11.539Z,26.57
2018-12-19T22:51:43.025Z,23.70
2018-12-19T22:54:16.285Z,28.10
2018-12-19T22:56:50.629Z,25.67
2018-12-19T22:59:32.342Z,22.37
2018-12-19T23:02:08.823Z,23.83
2018-12-19T23:04:42.718Z,26.30
2018-12-19T23:07:14.944Z,23.03
2018-12-19T23:09:46.739Z,25.80
2018-12-19T23:12:19.159Z,23.17
2018-12-19T23:14:51.081Z,26.90
2018-12-19T23:17:27.161Z,24.20
2018-12-19T23:19:59.468Z,25.97
2018-12-19T23:22:47.412Z,25.60
2018-12-19T23:25:21.474Z,29.10
2018-12-19T23:27:54.808Z,28.60
2018-12-19T23:30:26.254Z,24.13
2018-12-19T23:32:57.579Z,24.90
2018-12-19T23:35:29.133Z,27.20
2018-12-19T23:38:03.194Z,30.03
2018-12-19T23:40:34.893Z,28.97
2018-12-19T23:43:07.742Z,28.33
2018-12-19T23:45:52.476Z,27.73
2018-12-19T23:48:25.938Z,28.23
2018-12-19T23:50:57.178Z,31.17
2018-12-19T23:53:29.776Z,25.00
2018-12-19T23:56:02.921Z,26.13
2018-12-19T23:58:36.867Z,27.83
